createdAt,value
2023-04-03T00:02:27.601Z,20.27
2023-04-03T00:04:55.461Z,20.23
2023-04-03T00:07:23.121Z,18.50
2023-04-03T00:09:51.013Z,19.90
2023-04-03T00:12:18.636Z,18.15
2023-04-03T00:14:46.404Z,18.63
2023-04-03T00:17:14.041Z,21.02
2023-04-03T00:19:43.058Z,21.40
2023-04-03T00:22:11.010Z,15.68
2023-04-03T00:24:38.620Z,17.38
2023-04-03T00:27:06.326Z,19.40
2023-04-03T00:29:33.965Z,16.60
2023-04-03T00:32:01.626Z,19.90
2023-04-03T00:34:29.279Z,20.33
2023-04-03T00:36:59.190Z,19.17
2023-04-03T00:39:26.946Z,14.85
2023-04-03T00:41:54.618Z,19.13
2023-04-03T00:44:23.280Z,18.10
2023-04-03T00:46:51.026Z,19.65
2023-04-03T00:49:18.849Z,16.98
2023-04-03T00:51:46.622Z,18.88
2023-04-03T00:54:15.648Z,17.13
2023-04-03T00:56:43.469Z,12.98
2023-04-03T00:59:13.213Z,13.25
2023-04-03T01:01:41.239Z,19.02
2023-04-03T01:04:28.222Z,11.93
2023-04-03T01:06:57.262Z,15.60
2023-04-03T01:09:26.402Z,17.77
2023-04-03T01:11:54.181Z,20.98
2023-04-03T01:14:21.927Z,14.75
2023-04-03T01:16:54.316Z,16.77
2023-04-03T01:19:24.058Z,12.85
2023-04-03T01:22:09.505Z,16.63
2023-04-03T01:24:40.005Z,14.80
2023-04-03T01:27:09.080Z,17.38
2023-04-03T01:29:36.858Z,15.23
2023-04-03T01:32:06.155Z,15.73
2023-04-03T01:34:33.885Z,13.68
2023-04-03T01:37:01.502Z,19.27
2023-04-03T01:39:29.158Z,12.60
2023-04-03T01:41:56.919Z,20.40
2023-04-03T01:44:24.545Z,18.67
2023-04-03T01:46:52.231Z,18.88
2023-04-03T01:49:21.267Z,15.57
2023-04-03T01:51:48.916Z,23.23
2023-04-03T01:54:16.583Z,19.73
2023-04-03T01:56:44.410Z,15.50
2023-04-03T01:59:12.209Z,19.73
2023-04-03T02:01:40.577Z,17.00
2023-04-03T02:04:08.282Z,17.92
2023-04-03T02:06:37.289Z,15.02
2023-04-03T02:09:05.220Z,16.63
2023-04-03T02:11:32.921Z,16.02
2023-04-03T02:14:00.783Z,16.20
2023-04-03T02:16:29.751Z,10.20
2023-04-03T02:18:57.481Z,18.48
2023-04-03T02:21:25.446Z,16.65
2023-04-03T02:23:54.535Z,18.65
2023-04-03T02:26:22.223Z,21.85
2023-04-03T02:28:49.837Z,19.50
2023-04-03T02:31:17.685Z,17.08
2023-04-03T02:33:45.337Z,20.40
2023-04-03T02:36:12.980Z,17.67
2023-04-03T02:38:40.849Z,17.77
2023-04-03T02:41:11.258Z,15.02
2023-04-03T02:43:38.960Z,12.98
2023-04-03T02:46:06.949Z,17.15
2023-04-03T02:48:34.713Z,12.27
2023-04-03T02:51:02.423Z,12.15
2023-04-03T02:53:30.109Z,17.63
2023-04-03T02:55:57.764Z,14.60
2023-04-03T02:58:26.757Z,13.48
2023-04-03T03:00:54.452Z,15.90
2023-04-03T03:03:22.200Z,12.00
2023-04-03T03:05:50.204Z,14.77
2023-04-03T03:08:21.094Z,15.00
2023-04-03T03:10:48.751Z,14.68
2023-04-03T03:13:16.663Z,11.70
2023-04-03T03:18:25.496Z,12.93
2023-04-03T03:20:53.440Z,10.90
2023-04-03T03:23:21.365Z,13.57
2023-04-03T03:25:49.517Z,13.65
2023-04-03T03:28:17.461Z,13.75
2023-04-03T03:30:45.348Z,10.63
2023-04-03T03:33:12.992Z,9.45
2023-04-03T03:35:42.830Z,13.05
2023-04-03T03:38:10.563Z,15.02
2023-04-03T03:40:38.284Z,10.15
2023-04-03T03:43:06.111Z,10.90
2023-04-03T03:45:33.760Z,8.90
2023-04-03T03:48:01.466Z,8.98
2023-04-03T03:50:29.151Z,7.88
2023-04-03T03:52:58.271Z,9.63
2023-04-03T03:55:27.009Z,9.75
2023-04-03T03:57:54.832Z,14.88
2023-04-03T04:00:22.579Z,11.65
2023-04-03T04:02:50.350Z,15.40
2023-04-03T04:05:18.139Z,10.95
2023-04-03T04:07:45.746Z,9.55
2023-04-03T04:10:15.360Z,9.57
2023-04-03T04:12:42.980Z,10.05
2023-04-03T04:15:11.619Z,10.88
2023-04-03T04:17:39.268Z,9.00
2023-04-03T04:20:07.339Z,8.68
2023-04-03T04:22:35.163Z,9.77
2023-04-03T04:25:02.820Z,9.48
2023-04-03T04:27:31.869Z,12.05
2023-04-03T04:29:59.582Z,7.40
2023-04-03T04:32:27.314Z,17.00
2023-04-03T04:34:55.201Z,11.52
2023-04-03T04:37:22.960Z,10.90
2023-04-03T04:39:50.924Z,11.98
2023-04-03T04:42:18.561Z,11.40
2023-04-03T04:44:47.570Z,12.63
2023-04-03T04:47:15.213Z,13.30
2023-04-03T04:49:43.003Z,6.82
2023-04-03T04:52:10.800Z,12.07
2023-04-03T04:54:38.495Z,15.82
2023-04-03T04:57:06.134Z,5.85
2023-04-03T04:59:33.823Z,13.85
2023-04-03T05:02:03.777Z,8.57
2023-04-03T05:04:31.745Z,11.30
2023-04-03T05:07:00.383Z,9.45
2023-04-03T05:09:28.204Z,9.02
2023-04-03T05:11:57.281Z,8.93
2023-04-03T05:14:24.958Z,12.25
2023-04-03T05:16:54.831Z,11.57
2023-04-03T05:19:23.909Z,12.25
2023-04-03T05:21:51.524Z,9.60
2023-04-03T05:24:19.200Z,11.07
2023-04-03T05:26:46.822Z,11.90
2023-04-03T05:29:14.504Z,15.40
2023-04-03T05:31:42.336Z,13.63
2023-04-03T05:34:09.960Z,11.75
2023-04-03T05:36:38.952Z,10.30
2023-04-03T05:39:06.948Z,9.40
2023-04-03T05:41:34.857Z,12.50
2023-04-03T05:44:02.786Z,11.32
2023-04-03T05:46:30.950Z,13.27
2023-04-03T05:48:58.687Z,10.65
2023-04-03T05:51:27.883Z,10.52
2023-04-03T05:53:59.041Z,12.30
2023-04-03T05:56:26.783Z,10.82
2023-04-03T05:58:54.451Z,13.27
2023-04-03T06:01:26.375Z,12.73
2023-04-03T06:03:57.109Z,12.55
2023-04-03T06:06:24.983Z,8.45
2023-04-03T06:08:52.665Z,8.50
2023-04-03T06:11:22.592Z,11.45
2023-04-03T06:13:50.301Z,12.60
2023-04-03T06:16:19.182Z,9.18
2023-04-03T06:18:46.940Z,8.57
2023-04-03T06:21:14.596Z,9.60
2023-04-03T06:23:42.955Z,12.95
2023-04-03T06:26:10.603Z,10.82
2023-04-03T06:28:40.841Z,8.10
2023-04-03T06:31:08.600Z,8.13
2023-04-03T06:33:36.777Z,9.40
2023-04-03T06:36:06.238Z,5.85
2023-04-03T06:38:33.988Z,11.52
2023-04-03T06:41:01.629Z,7.55
2023-04-03T06:43:29.305Z,9.15
2023-04-03T06:45:58.280Z,8.50
2023-04-03T06:48:25.969Z,9.27
2023-04-03T06:50:53.565Z,6.82
2023-04-03T06:53:21.405Z,7.93
2023-04-03T06:55:49.090Z,11.02
2023-04-03T06:58:19.059Z,7.78
2023-04-03T07:00:48.287Z,8.00
2023-04-03T07:03:17.964Z,8.70
2023-04-03T07:05:45.946Z,8.70
2023-04-03T07:08:13.589Z,8.30
2023-04-03T07:10:41.557Z,10.65
2023-04-03T07:13:09.365Z,7.38
2023-04-03T07:15:38.123Z,8.57
2023-04-03T07:18:07.078Z,6.20
2023-04-03T07:20:38.803Z,6.43
2023-04-03T07:23:09.536Z,10.52
2023-04-03T07:25:37.409Z,7.90
2023-04-03T07:28:05.366Z,6.57
2023-04-03T07:30:32.981Z,8.95
2023-04-03T07:33:00.721Z,9.30
2023-04-03T07:35:29.016Z,9.52
2023-04-03T07:37:58.579Z,5.53
2023-04-03T07:40:27.083Z,7.65
2023-04-03T07:42:56.050Z,7.47
2023-04-03T07:45:23.861Z,6.90
2023-04-03T07:47:51.714Z,9.70
2023-04-03T07:50:19.820Z,6.82
2023-04-03T07:52:47.468Z,7.20
2023-04-03T07:55:17.008Z,7.68
2023-04-03T07:57:44.832Z,6.88
2023-04-03T08:00:13.192Z,9.32
2023-04-03T08:02:40.956Z,8.73
2023-04-03T08:05:09.021Z,9.38
2023-04-03T08:07:38.539Z,9.82
2023-04-03T08:10:06.683Z,13.00
2023-04-03T08:12:35.804Z,8.52
2023-04-03T08:15:03.494Z,14.23
2023-04-03T08:17:31.453Z,10.43
2023-04-03T08:19:59.377Z,10.63
2023-04-03T08:22:28.772Z,10.60
2023-04-03T08:24:59.298Z,7.55
2023-04-03T08:27:28.219Z,7.30
2023-04-03T08:29:58.044Z,9.93
2023-04-03T08:32:28.134Z,7.22
2023-04-03T08:34:55.838Z,8.25
2023-04-03T08:37:23.477Z,8.75
2023-04-03T08:39:51.092Z,7.95
2023-04-03T08:42:22.589Z,6.88
2023-04-03T08:44:52.612Z,8.23
2023-04-03T08:47:25.503Z,7.55
2023-04-03T08:49:55.355Z,6.20
2023-04-03T08:52:26.457Z,7.47
2023-04-03T08:54:55.843Z,6.90
2023-04-03T08:57:28.822Z,5.75
2023-04-03T08:59:56.714Z,7.80
2023-04-03T09:02:29.365Z,4.68
2023-04-03T09:04:58.027Z,7.03
2023-04-03T09:07:32.652Z,4.75
2023-04-03T09:10:02.203Z,8.02
2023-04-03T09:12:34.103Z,6.05
2023-04-03T09:15:04.253Z,3.72
2023-04-03T09:17:38.578Z,3.50
2023-04-03T09:20:13.087Z,3.92
2023-04-03T09:22:49.759Z,4.07
2023-04-03T09:25:22.323Z,4.10
2023-04-03T09:27:50.303Z,4.85
2023-04-03T09:30:19.181Z,4.55
2023-04-03T09:32:48.974Z,6.43
2023-04-03T09:35:27.459Z,5.95
2023-04-03T09:38:16.281Z,3.10
2023-04-03T09:40:44.842Z,3.13
2023-04-03T09:43:24.511Z,3.45
2023-04-03T09:45:52.950Z,6.13
2023-04-03T09:48:22.724Z,8.25
2023-04-03T09:51:01.021Z,5.65
2023-04-03T09:53:30.088Z,8.68
2023-04-03T09:55:58.042Z,4.45
2023-04-03T09:58:28.137Z,5.72
2023-04-03T10:00:59.933Z,6.07
2023-04-03T10:03:32.783Z,7.90
2023-04-03T10:06:01.923Z,4.82
2023-04-03T10:08:31.098Z,5.03
2023-04-03T10:11:10.896Z,7.45
2023-04-03T10:13:48.957Z,6.35
2023-04-03T10:16:19.694Z,7.50
2023-04-03T10:18:51.812Z,9.20
2023-04-03T10:21:34.842Z,8.73
2023-04-03T10:24:08.349Z,4.22
2023-04-03T10:26:39.637Z,8.75
2023-04-03T10:29:12.452Z,5.88
2023-04-03T10:31:43.912Z,3.95
2023-04-03T10:34:17.781Z,5.03
2023-04-03T10:36:47.726Z,5.93
2023-04-03T10:39:19.984Z,5.57
2023-04-03T10:41:57.916Z,4.88
2023-04-03T10:44:32.489Z,5.18
2023-04-03T10:47:04.686Z,5.03
2023-04-03T10:49:40.606Z,4.30
2023-04-03T10:52:13.305Z,4.72
2023-04-03T10:54:41.693Z,3.75
2023-04-03T10:57:13.409Z,2.75
2023-04-03T10:59:43.767Z,6.07
2023-04-03T11:02:17.595Z,3.17
2023-04-03T11:04:48.815Z,5.53
2023-04-03T11:07:19.521Z,5.45
2023-04-03T11:09:48.501Z,3.50
2023-04-03T11:12:19.203Z,3.47
2023-04-03T11:14:48.974Z,3.88
2023-04-03T11:17:29.463Z,4.03
2023-04-03T11:20:02.606Z,2.40
2023-04-03T11:22:33.170Z,3.33
2023-04-03T11:25:04.616Z,4.35
2023-04-03T11:27:35.975Z,3.20
2023-04-03T11:30:04.170Z,4.75
2023-04-03T11:32:42.574Z,1.75
2023-04-03T11:35:11.991Z,1.98
2023-04-03T11:37:41.553Z,2.08
2023-04-03T11:40:16.554Z,4.80
2023-04-03T11:42:45.093Z,3.42
2023-04-03T11:45:25.795Z,3.95
2023-04-03T11:47:54.667Z,5.80
2023-04-03T11:50:46.409Z,4.88
2023-04-03T11:53:29.320Z,1.48
2023-04-03T11:55:58.442Z,6.50
2023-04-03T11:58:28.158Z,4.15
2023-04-03T12:00:57.469Z,5.15
2023-04-03T12:03:56.834Z,6.80
2023-04-03T12:06:58.659Z,2.20
2023-04-03T12:09:41.173Z,2.08
2023-04-03T12:12:30.025Z,4.18
2023-04-03T12:14:57.696Z,6.75
2023-04-03T12:17:28.559Z,1.40
2023-04-03T12:19:56.290Z,2.70
2023-04-03T12:22:24.011Z,2.03
2023-04-03T12:24:52.816Z,1.98
2023-04-03T12:27:24.539Z,2.58
2023-04-03T12:30:00.213Z,1.75
2023-04-03T12:33:05.768Z,5.05
2023-04-03T12:35:39.409Z,1.45
2023-04-03T12:38:21.271Z,1.95
2023-04-03T12:40:53.421Z,4.28
2023-04-03T12:43:36.305Z,5.07
2023-04-03T12:46:06.801Z,3.33
2023-04-03T12:48:39.627Z,1.92
2023-04-03T12:51:07.593Z,1.90
2023-04-03T12:53:36.230Z,4.05
2023-04-03T12:56:18.716Z,4.25
2023-04-03T12:58:46.374Z,4.75
2023-04-03T13:01:16.578Z,4.35
2023-04-03T13:03:46.180Z,2.40
2023-04-03T13:06:20.998Z,3.50
2023-04-03T13:08:52.249Z,3.50
2023-04-03T13:11:21.822Z,2.55
2023-04-03T13:13:59.802Z,4.55
2023-04-03T13:16:29.451Z,2.05
2023-04-03T13:18:57.431Z,1.90
2023-04-03T13:21:27.046Z,4.68
2023-04-03T13:24:07.175Z,1.90
2023-04-03T13:26:40.141Z,3.00
2023-04-03T13:29:12.785Z,3.38
2023-04-03T13:31:46.913Z,3.83
2023-04-03T13:34:15.792Z,1.60
2023-04-03T13:36:45.921Z,1.92
2023-04-03T13:39:23.964Z,6.45
2023-04-03T13:41:52.698Z,4.18
2023-04-03T13:44:28.260Z,2.45
2023-04-03T13:47:11.026Z,2.60
2023-04-03T13:49:41.551Z,3.72
2023-04-03T13:52:24.115Z,2.00
2023-04-03T13:54:54.398Z,1.88
2023-04-03T13:57:22.256Z,3.63
2023-04-03T13:59:50.890Z,3.63
2023-04-03T14:02:20.244Z,1.58
2023-04-03T14:04:51.756Z,2.25
2023-04-03T14:07:21.127Z,6.00
2023-04-03T14:09:49.404Z,2.40
2023-04-03T14:12:30.711Z,3.55
2023-04-03T14:14:59.965Z,6.13
2023-04-03T14:17:28.755Z,6.30
2023-04-03T14:19:58.428Z,4.38
2023-04-03T14:22:27.124Z,4.50
2023-04-03T14:24:55.201Z,1.52
2023-04-03T14:27:24.793Z,1.85
2023-04-03T14:29:53.885Z,1.67
2023-04-03T14:32:22.707Z,3.35
2023-04-03T14:34:50.992Z,1.63
2023-04-03T14:37:21.282Z,2.22
2023-04-03T14:39:49.351Z,3.50
2023-04-03T14:42:18.389Z,1.52
2023-04-03T14:44:46.107Z,2.65
2023-04-03T14:47:27.409Z,2.70
2023-04-03T14:49:58.828Z,2.87
2023-04-03T14:52:28.811Z,1.67
2023-04-03T14:54:56.677Z,1.23
2023-04-03T14:57:26.010Z,1.17
2023-04-03T14:59:53.724Z,3.05
2023-04-03T15:02:29.051Z,2.10
2023-04-03T15:04:57.013Z,2.58
2023-04-03T15:07:26.267Z,3.90
2023-04-03T15:09:57.191Z,1.92
2023-04-03T15:12:24.881Z,2.78
2023-04-03T15:15:00.298Z,2.00
2023-04-03T15:17:30.964Z,2.83
2023-04-03T15:19:58.661Z,3.55
2023-04-03T15:22:26.328Z,1.73
2023-04-03T15:24:55.566Z,2.72
2023-04-03T15:27:24.276Z,3.75
2023-04-03T15:29:51.993Z,3.50
2023-04-03T15:32:20.669Z,3.38
2023-04-03T15:34:48.334Z,1.35
2023-04-03T15:37:16.086Z,2.30
2023-04-03T15:39:44.149Z,3.25
2023-04-03T15:42:13.711Z,2.25
2023-04-03T15:44:41.458Z,3.88
2023-04-03T15:47:11.849Z,2.67
2023-04-03T15:49:39.875Z,2.17
2023-04-03T15:52:07.571Z,4.22
2023-04-03T15:54:35.242Z,1.58
2023-04-03T15:57:03.212Z,2.80
2023-04-03T15:59:33.163Z,3.38
2023-04-03T16:02:01.721Z,5.80
2023-04-03T16:04:29.489Z,3.30
2023-04-03T16:06:57.376Z,2.78
2023-04-03T16:09:25.104Z,1.98
2023-04-03T16:11:53.599Z,1.08
2023-04-03T16:14:21.287Z,3.63
2023-04-03T16:16:50.400Z,2.50
2023-04-03T16:19:18.060Z,2.83
2023-04-03T16:21:45.707Z,1.75
2023-04-03T16:24:14.474Z,2.55
2023-04-03T16:26:43.944Z,1.63
2023-04-03T16:29:11.723Z,4.43
2023-04-03T16:31:39.584Z,4.45
2023-04-03T16:34:08.998Z,2.28
2023-04-03T16:36:38.700Z,1.92
2023-04-03T16:39:06.592Z,1.75
2023-04-03T16:41:34.244Z,2.50
2023-04-03T16:44:02.607Z,1.00
2023-04-03T16:46:30.584Z,2.45
2023-04-03T16:48:58.262Z,2.35
2023-04-03T16:51:27.316Z,1.38
2023-04-03T16:53:54.919Z,2.83
2023-04-03T16:56:23.126Z,1.02
2023-04-03T16:58:50.893Z,2.17
2023-04-03T17:01:19.744Z,1.70
2023-04-03T17:03:47.569Z,4.72
2023-04-03T17:06:21.869Z,2.15
2023-04-03T17:08:51.978Z,3.05
2023-04-03T17:11:19.667Z,1.55
2023-04-03T17:13:47.293Z,2.05
2023-04-03T17:16:15.832Z,2.83
2023-04-03T17:18:44.090Z,1.30
2023-04-03T17:21:12.741Z,1.55
2023-04-03T17:23:41.267Z,2.60
2023-04-03T17:26:11.867Z,1.52
2023-04-03T17:28:40.808Z,2.17
2023-04-03T17:31:08.891Z,1.60
2023-04-03T17:33:36.548Z,2.65
2023-04-03T17:36:05.385Z,2.40
2023-04-03T17:38:33.485Z,1.10
2023-04-03T17:41:02.048Z,1.58
2023-04-03T17:43:31.211Z,2.08
2023-04-03T17:46:03.808Z,1.58
2023-04-03T17:48:33.449Z,2.33
2023-04-03T17:51:01.229Z,2.40
2023-04-03T17:53:29.350Z,4.63
2023-04-03T17:55:57.056Z,1.60
2023-04-03T17:58:24.689Z,2.25
2023-04-03T18:00:55.169Z,1.55
2023-04-03T18:03:22.814Z,2.25
2023-04-03T18:05:54.998Z,2.42
2023-04-03T18:08:23.559Z,2.35
2023-04-03T18:10:51.340Z,1.55
2023-04-03T18:13:19.044Z,3.38
2023-04-03T18:15:47.060Z,1.77
2023-04-03T18:18:16.208Z,2.03
2023-04-03T18:20:43.862Z,2.03
2023-04-03T18:23:11.705Z,3.83
2023-04-03T18:25:39.871Z,2.90
2023-04-03T18:28:16.257Z,4.78
2023-04-03T18:30:44.204Z,3.42
2023-04-03T18:33:12.067Z,7.35
2023-04-03T18:35:41.313Z,3.33
2023-04-03T18:38:09.342Z,2.13
2023-04-03T18:40:36.966Z,3.80
2023-04-03T18:43:04.928Z,3.13
2023-04-03T18:45:32.605Z,3.60
2023-04-03T18:48:00.569Z,3.50
2023-04-03T18:50:35.081Z,2.05
2023-04-03T18:53:04.210Z,4.07
2023-04-03T18:55:32.215Z,2.53
2023-04-03T18:57:59.893Z,2.20
2023-04-03T19:00:28.232Z,2.28
2023-04-03T19:02:56.015Z,2.47
2023-04-03T19:05:23.897Z,2.97
2023-04-03T19:07:51.794Z,3.25
2023-04-03T19:10:21.027Z,3.85
2023-04-03T19:12:50.076Z,2.65
2023-04-03T19:15:19.057Z,4.13
2023-04-03T19:17:46.781Z,3.47
2023-04-03T19:20:14.885Z,3.55
2023-04-03T19:22:42.869Z,4.22
2023-04-03T19:25:11.595Z,5.22
2023-04-03T19:27:41.350Z,5.03
2023-04-03T19:30:09.958Z,1.60
2023-04-03T19:32:37.988Z,2.08
2023-04-03T19:35:06.659Z,2.90
2023-04-03T19:37:34.394Z,2.20
2023-04-03T19:40:02.142Z,4.68
2023-04-03T19:42:30.427Z,5.80
2023-04-03T19:44:59.594Z,3.25
2023-04-03T19:47:29.714Z,2.63
2023-04-03T19:49:57.471Z,1.30
2023-04-03T19:52:25.158Z,1.92
2023-04-03T19:54:53.070Z,7.50
2023-04-03T19:57:21.059Z,2.90
2023-04-03T19:59:48.834Z,2.33
2023-04-03T20:02:18.875Z,2.53
2023-04-03T20:04:47.792Z,2.17
2023-04-03T20:07:16.057Z,4.07
2023-04-03T20:09:43.693Z,3.25
2023-04-03T20:12:12.318Z,4.13
2023-04-03T20:14:41.145Z,2.80
2023-04-03T20:17:08.858Z,3.78
2023-04-03T20:19:39.687Z,4.78
2023-04-03T20:22:08.636Z,8.68
2023-04-03T20:24:38.232Z,1.40
2023-04-03T20:27:07.451Z,4.60
2023-04-03T20:29:36.341Z,4.78
2023-04-03T20:32:07.401Z,4.50
2023-04-03T20:34:35.157Z,4.78
2023-04-03T20:37:04.632Z,4.32
2023-04-03T20:39:32.371Z,4.03
2023-04-03T20:41:59.996Z,5.40
2023-04-03T20:44:28.055Z,3.63
2023-04-03T20:46:55.830Z,3.78
2023-04-03T20:49:24.968Z,4.93
2023-04-03T20:51:53.665Z,4.20
2023-04-03T20:54:23.385Z,4.25
2023-04-03T20:56:52.807Z,1.95
2023-04-03T20:59:20.860Z,4.57
2023-04-03T21:01:48.999Z,2.88
2023-04-03T21:04:20.105Z,2.80
2023-04-03T21:07:06.903Z,2.95
2023-04-03T21:09:53.185Z,2.60
2023-04-03T21:12:39.363Z,9.13
2023-04-03T21:15:25.651Z,2.25
2023-04-03T21:18:07.654Z,3.38
2023-04-03T21:20:35.589Z,3.55
2023-04-03T21:23:03.492Z,7.22
2023-04-03T21:25:31.265Z,2.75
2023-04-03T21:27:59.108Z,2.88
2023-04-03T21:30:27.264Z,2.40
2023-04-03T21:32:54.970Z,2.58
2023-04-03T21:35:24.079Z,3.28
2023-04-03T21:37:51.732Z,4.03
2023-04-03T21:40:19.842Z,3.20
2023-04-03T21:42:47.572Z,3.60
2023-04-03T21:45:16.136Z,2.47
2023-04-03T21:47:44.109Z,5.90
2023-04-03T21:50:12.056Z,2.38
2023-04-03T21:52:41.256Z,2.40
2023-04-03T21:55:09.742Z,3.05
2023-04-03T21:57:38.098Z,2.70
2023-04-03T22:00:10.867Z,2.15
2023-04-03T22:02:40.439Z,5.85
2023-04-03T22:05:08.369Z,2.72
2023-04-03T22:07:36.056Z,2.63
2023-04-03T22:10:05.285Z,3.95
2023-04-03T22:12:34.183Z,5.57
2023-04-03T22:15:02.344Z,3.70
2023-04-03T22:17:32.893Z,5.30
2023-04-03T22:20:00.591Z,4.35
2023-04-03T22:22:28.367Z,3.17
2023-04-03T22:24:56.028Z,5.60
2023-04-03T22:27:25.831Z,1.58
2023-04-03T22:29:53.514Z,5.88
2023-04-03T22:32:21.215Z,3.33
2023-04-03T22:34:48.881Z,3.88
2023-04-03T22:37:16.597Z,2.50
2023-04-03T22:39:44.278Z,3.60
2023-04-03T22:42:11.945Z,2.97
2023-04-03T22:44:40.940Z,3.22
2023-04-03T22:47:08.588Z,4.38
2023-04-03T22:49:36.939Z,2.17
2023-04-03T22:52:04.764Z,4.30
2023-04-03T22:54:32.374Z,2.38
2023-04-03T22:57:00.126Z,4.38
2023-04-03T22:59:27.767Z,3.20
2023-04-03T23:01:56.850Z,8.38
2023-04-03T23:04:24.637Z,7.18
2023-04-03T23:06:52.383Z,2.30
2023-04-03T23:09:21.358Z,1.25
2023-04-03T23:11:49.016Z,2.40
2023-04-03T23:14:16.697Z,4.03
2023-04-03T23:16:44.442Z,3.67
2023-04-03T23:19:14.074Z,1.98
2023-04-03T23:21:41.751Z,2.53
2023-04-03T23:24:09.609Z,4.10
2023-04-03T23:26:37.321Z,4.88
2023-04-03T23:29:05.663Z,3.70
2023-04-03T23:31:33.393Z,6.45
2023-04-03T23:34:01.091Z,3.63
2023-04-03T23:36:30.199Z,3.50
2023-04-03T23:38:57.940Z,2.70
2023-04-03T23:41:26.079Z,5.38
2023-04-03T23:43:53.812Z,1.90
2023-04-03T23:46:21.484Z,1.45
2023-04-03T23:48:49.278Z,2.15
2023-04-03T23:51:17.191Z,6.93
2023-04-03T23:53:46.364Z,1.60
2023-04-03T23:56:13.957Z,3.25
2023-04-03T23:58:43.857Z,2.28
